sensor_id;sensor_type;location;lat;lon;timestamp;pressure;altitude;pressure_sealevel;temperature
72236;BMP280;60146;52.498;13.462;2023-04-06T00:02:22;101846.06;;;6.39
72236;BMP280;60146;52.498;13.462;2023-04-06T00:04:48;101854.31;;;6.37
72236;BMP280;60146;52.498;13.462;2023-04-06T00:07:13;101846.38;;;6.32
72236;BMP280;60146;52.498;13.462;2023-04-06T00:09:38;101844.34;;;6.34
72236;BMP280;60146;52.498;13.462;2023-04-06T00:12:04;101840.38;;;6.31
72236;BMP280;60146;52.498;13.462;2023-04-06T00:14:30;101836.41;;;6.29
72236;BMP280;60146;52.498;13.462;2023-04-06T00:16:55;101838.13;;;6.35
72236;BMP280;60146;52.498;13.462;2023-04-06T00:19:21;101834.88;;;6.39
72236;BMP280;60146;52.498;13.462;2023-04-06T00:21:46;101836.44;;;6.40
72236;BMP280;60146;52.498;13.462;2023-04-06T00:24:11;101831.78;;;6.31
72236;BMP280;60146;52.498;13.462;2023-04-06T00:26:37;101836.97;;;6.31
72236;BMP280;60146;52.498;13.462;2023-04-06T00:29:02;101832.00;;;6.29
72236;BMP280;60146;52.498;13.462;2023-04-06T00:31:28;101827.88;;;6.22
72236;BMP280;60146;52.498;13.462;2023-04-06T00:33:53;101823.13;;;6.19
72236;BMP280;60146;52.498;13.462;2023-04-06T00:36:20;101831.16;;;6.18
72236;BMP280;60146;52.498;13.462;2023-04-06T00:38:45;101831.38;;;6.16
72236;BMP280;60146;52.498;13.462;2023-04-06T00:41:11;101825.16;;;6.17
72236;BMP280;60146;52.498;13.462;2023-04-06T00:43:36;101823.97;;;6.13
72236;BMP280;60146;52.498;13.462;2023-04-06T00:46:02;101827.19;;;6.15
72236;BMP280;60146;52.498;13.462;2023-04-06T00:48:27;101826.44;;;6.08
72236;BMP280;60146;52.498;13.462;2023-04-06T00:50:53;101825.31;;;6.04
72236;BMP280;60146;52.498;13.462;2023-04-06T00:53:18;101823.72;;;6.03
72236;BMP280;60146;52.498;13.462;2023-04-06T00:55:43;101822.50;;;6.06
72236;BMP280;60146;52.498;13.462;2023-04-06T00:58:09;101842.53;;;6.05
72236;BMP280;60146;52.498;13.462;2023-04-06T01:00:35;101828.34;;;6.01
72236;BMP280;60146;52.498;13.462;2023-04-06T01:03:00;101826.13;;;6.05
72236;BMP280;60146;52.498;13.462;2023-04-06T01:05:26;101821.03;;;6.10
72236;BMP280;60146;52.498;13.462;2023-04-06T01:07:51;101823.31;;;6.06
72236;BMP280;60146;52.498;13.462;2023-04-06T01:10:25;101824.72;;;6.02
72236;BMP280;60146;52.498;13.462;2023-04-06T01:12:50;101821.72;;;6.05
72236;BMP280;60146;52.498;13.462;2023-04-06T01:15:16;101823.31;;;6.06
72236;BMP280;60146;52.498;13.462;2023-04-06T01:17:42;101815.13;;;6.03
72236;BMP280;60146;52.498;13.462;2023-04-06T01:20:07;101825.44;;;6.09
72236;BMP280;60146;52.498;13.462;2023-04-06T01:22:33;101820.81;;;6.11
72236;BMP280;60146;52.498;13.462;2023-04-06T01:24:58;101818.09;;;6.06
72236;BMP280;60146;52.498;13.462;2023-04-06T01:27:24;101816.91;;;6.02
72236;BMP280;60146;52.498;13.462;2023-04-06T01:29:52;101817.34;;;5.99
72236;BMP280;60146;52.498;13.462;2023-04-06T01:32:18;101823.34;;;6.00
72236;BMP280;60146;52.498;13.462;2023-04-06T01:35:01;101824.44;;;5.93
72236;BMP280;60146;52.498;13.462;2023-04-06T01:37:56;101815.63;;;5.94
72236;BMP280;60146;52.498;13.462;2023-04-06T01:40:55;101817.34;;;5.99
72236;BMP280;60146;52.498;13.462;2023-04-06T01:43:21;101819.09;;;5.88
72236;BMP280;60146;52.498;13.462;2023-04-06T01:45:47;101826.75;;;5.83
72236;BMP280;60146;52.498;13.462;2023-04-06T01:48:13;101824.13;;;5.83
72236;BMP280;60146;52.498;13.462;2023-04-06T01:50:38;101818.72;;;5.84
72236;BMP280;60146;52.498;13.462;2023-04-06T01:53:03;101824.31;;;5.88
72236;BMP280;60146;52.498;13.462;2023-04-06T01:55:29;101821.53;;;5.83
72236;BMP280;60146;52.498;13.462;2023-04-06T01:57:54;101815.53;;;5.82
72236;BMP280;60146;52.498;13.462;2023-04-06T02:00:20;101820.31;;;5.85
72236;BMP280;60146;52.498;13.462;2023-04-06T02:02:45;101816.22;;;5.78
72236;BMP280;60146;52.498;13.462;2023-04-06T02:05:11;101807.63;;;5.77
72236;BMP280;60146;52.498;13.462;2023-04-06T02:07:36;101819.63;;;5.78
72236;BMP280;60146;52.498;13.462;2023-04-06T02:10:02;101823.28;;;5.71
72236;BMP280;60146;52.498;13.462;2023-04-06T02:12:27;101825.22;;;5.75
72236;BMP280;60146;52.498;13.462;2023-04-06T02:14:53;101817.34;;;5.64
72236;BMP280;60146;52.498;13.462;2023-04-06T02:17:18;101815.22;;;5.79
72236;BMP280;60146;52.498;13.462;2023-04-06T02:19:44;101817.72;;;5.68
72236;BMP280;60146;52.498;13.462;2023-04-06T02:22:09;101826.16;;;5.63
72236;BMP280;60146;52.498;13.462;2023-04-06T02:24:35;101815.63;;;5.58
72236;BMP280;60146;52.498;13.462;2023-04-06T02:27:01;101817.81;;;5.55
72236;BMP280;60146;52.498;13.462;2023-04-06T02:29:27;101818.63;;;5.55
72236;BMP280;60146;52.498;13.462;2023-04-06T02:31:52;101815.63;;;5.58
72236;BMP280;60146;52.498;13.462;2023-04-06T02:34:18;101827.97;;;5.63
72236;BMP280;60146;52.498;13.462;2023-04-06T02:36:45;101822.41;;;5.59
72236;BMP280;60146;52.498;13.462;2023-04-06T02:39:10;101822.16;;;5.43
72236;BMP280;60146;52.498;13.462;2023-04-06T02:41:36;101827.63;;;5.35
72236;BMP280;60146;52.498;13.462;2023-04-06T02:44:02;101834.75;;;5.22
72236;BMP280;60146;52.498;13.462;2023-04-06T02:46:28;101818.72;;;5.25
72236;BMP280;60146;52.498;13.462;2023-04-06T02:48:53;101814.31;;;5.26
72236;BMP280;60146;52.498;13.462;2023-04-06T02:51:18;101829.22;;;5.12
72236;BMP280;60146;52.498;13.462;2023-04-06T02:53:44;101829.50;;;5.05
72236;BMP280;60146;52.498;13.462;2023-04-06T02:56:10;101824.72;;;5.02
72236;BMP280;60146;52.498;13.462;2023-04-06T02:58:35;101832.69;;;5.00
72236;BMP280;60146;52.498;13.462;2023-04-06T03:01:02;101834.75;;;4.92
72236;BMP280;60146;52.498;13.462;2023-04-06T03:10:11;101829.50;;;4.74
72236;BMP280;60146;52.498;13.462;2023-04-06T03:12:37;101830.53;;;4.61
72236;BMP280;60146;52.498;13.462;2023-04-06T03:15:03;101834.16;;;4.60
72236;BMP280;60146;52.498;13.462;2023-04-06T03:17:28;101838.59;;;4.53
72236;BMP280;60146;52.498;13.462;2023-04-06T03:19:54;101826.44;;;4.47
72236;BMP280;60146;52.498;13.462;2023-04-06T03:22:19;101835.03;;;4.41
72236;BMP280;60146;52.498;13.462;2023-04-06T03:24:45;101833.44;;;4.40
72236;BMP280;60146;52.498;13.462;2023-04-06T03:27:11;101830.72;;;4.35
72236;BMP280;60146;52.498;13.462;2023-04-06T03:29:36;101826.31;;;4.36
72236;BMP280;60146;52.498;13.462;2023-04-06T03:32:02;101838.28;;;4.30
72236;BMP280;60146;52.498;13.462;2023-04-06T03:34:27;101832.69;;;4.33
72236;BMP280;60146;52.498;13.462;2023-04-06T03:36:53;101837.69;;;4.28
72236;BMP280;60146;52.498;13.462;2023-04-06T03:39:18;101839.50;;;4.22
72236;BMP280;60146;52.498;13.462;2023-04-06T03:41:44;101845.91;;;4.25
72236;BMP280;60146;52.498;13.462;2023-04-06T03:44:09;101845.91;;;4.25
72236;BMP280;60146;52.498;13.462;2023-04-06T03:46:35;101847.53;;;4.20
72236;BMP280;60146;52.498;13.462;2023-04-06T03:49:00;101847.06;;;4.29
72236;BMP280;60146;52.498;13.462;2023-04-06T03:51:27;101863.09;;;4.20
72236;BMP280;60146;52.498;13.462;2023-04-06T03:53:52;101856.91;;;4.15
72236;BMP280;60146;52.498;13.462;2023-04-06T03:56:18;101860.69;;;4.12
72236;BMP280;60146;52.498;13.462;2023-04-06T03:58:43;101864.09;;;4.13
72236;BMP280;60146;52.498;13.462;2023-04-06T04:01:10;101861.91;;;4.16
72236;BMP280;60146;52.498;13.462;2023-04-06T04:03:35;101866.47;;;4.14
72236;BMP280;60146;52.498;13.462;2023-04-06T04:06:01;101869.47;;;4.11
72236;BMP280;60146;52.498;13.462;2023-04-06T04:08:27;101872.47;;;4.08
72236;BMP280;60146;52.498;13.462;2023-04-06T04:10:52;101879.03;;;4.04
72236;BMP280;60146;52.498;13.462;2023-04-06T04:13:18;101876.50;;;3.98
72236;BMP280;60146;52.498;13.462;2023-04-06T04:15:43;101875.72;;;3.91
72236;BMP280;60146;52.498;13.462;2023-04-06T04:18:09;101880.88;;;3.91
72236;BMP280;60146;52.498;13.462;2023-04-06T04:20:34;101880.47;;;3.94
72236;BMP280;60146;52.498;13.462;2023-04-06T04:23:00;101882.06;;;4.01
72236;BMP280;60146;52.498;13.462;2023-04-06T04:25:25;101878.69;;;3.95
72236;BMP280;60146;52.498;13.462;2023-04-06T04:27:51;101874.91;;;3.97
72236;BMP280;60146;52.498;13.462;2023-04-06T04:30:16;101877.66;;;4.02
72236;BMP280;60146;52.498;13.462;2023-04-06T04:32:42;101879.84;;;4.05
72236;BMP280;60146;52.498;13.462;2023-04-06T04:35:08;101885.44;;;4.02
72236;BMP280;60146;52.498;13.462;2023-04-06T04:37:33;101880.91;;;3.98
72236;BMP280;60146;52.498;13.462;2023-04-06T04:40:00;101887.88;;;3.97
72236;BMP280;60146;52.498;13.462;2023-04-06T04:42:25;101883.50;;;3.98
72236;BMP280;60146;52.498;13.462;2023-04-06T04:44:51;101884.66;;;4.08
72236;BMP280;60146;52.498;13.462;2023-04-06T04:47:17;101885.44;;;4.02
72236;BMP280;60146;52.498;13.462;2023-04-06T04:49:42;101885.88;;;3.99
72236;BMP280;60146;52.498;13.462;2023-04-06T04:52:07;101882.88;;;3.96
72236;BMP280;60146;52.498;13.462;2023-04-06T04:54:33;101895.81;;;4.02
72236;BMP280;60146;52.498;13.462;2023-04-06T04:56:58;101884.88;;;4.00
72236;BMP280;60146;52.498;13.462;2023-04-06T04:59:24;101893.81;;;4.04
72236;BMP280;60146;52.498;13.462;2023-04-06T05:01:49;101891.41;;;4.02
72236;BMP280;60146;52.498;13.462;2023-04-06T05:04:15;101897.00;;;4.06
72236;BMP280;60146;52.498;13.462;2023-04-06T05:06:40;101892.19;;;4.16
72236;BMP280;60146;52.498;13.462;2023-04-06T05:09:06;101891.38;;;4.22
72236;BMP280;60146;52.498;13.462;2023-04-06T05:11:31;101887.63;;;4.18
72236;BMP280;60146;52.498;13.462;2023-04-06T05:13:57;101895.78;;;4.27
72236;BMP280;60146;52.498;13.462;2023-04-06T05:16:22;101889.97;;;4.38
72236;BMP280;60146;52.498;13.462;2023-04-06T05:18:48;101885.91;;;4.55
72236;BMP280;60146;52.498;13.462;2023-04-06T05:21:13;101890.78;;;4.75
72236;BMP280;60146;52.498;13.462;2023-04-06T05:23:39;101889.34;;;4.79
72236;BMP280;60146;52.498;13.462;2023-04-06T05:26:05;101888.19;;;4.75
72236;BMP280;60146;52.498;13.462;2023-04-06T05:28:30;101895.41;;;4.73
72236;BMP280;60146;52.498;13.462;2023-04-06T05:30:56;101899.22;;;4.65
72236;BMP280;60146;52.498;13.462;2023-04-06T05:33:22;101895.97;;;4.75
72236;BMP280;60146;52.498;13.462;2023-04-06T05:35:48;101906.34;;;4.75
72236;BMP280;60146;52.498;13.462;2023-04-06T05:38:13;101900.16;;;4.76
72236;BMP280;60146;52.498;13.462;2023-04-06T05:40:39;101903.94;;;4.80
72236;BMP280;60146;52.498;13.462;2023-04-06T05:43:06;101906.53;;;4.80
72236;BMP280;60146;52.498;13.462;2023-04-06T05:45:32;101906.72;;;4.85
72236;BMP280;60146;52.498;13.462;2023-04-06T05:47:57;101914.84;;;4.95
72236;BMP280;60146;52.498;13.462;2023-04-06T05:50:23;101907.88;;;4.89
72236;BMP280;60146;52.498;13.462;2023-04-06T05:52:48;101901.44;;;4.98
72236;BMP280;60146;52.498;13.462;2023-04-06T05:55:14;101897.03;;;4.98
72236;BMP280;60146;52.498;13.462;2023-04-06T05:57:39;101900.22;;;5.00
72236;BMP280;60146;52.498;13.462;2023-04-06T06:00:06;101894.63;;;5.03
72236;BMP280;60146;52.498;13.462;2023-04-06T06:02:34;101904.34;;;5.08
72236;BMP280;60146;52.498;13.462;2023-04-06T06:04:59;101899.63;;;5.05
72236;BMP280;60146;52.498;13.462;2023-04-06T06:07:25;101904.81;;;5.05
72236;BMP280;60146;52.498;13.462;2023-04-06T06:09:50;101908.53;;;5.09
72236;BMP280;60146;52.498;13.462;2023-04-06T06:12:16;101903.56;;;5.13
72236;BMP280;60146;52.498;13.462;2023-04-06T06:14:41;101902.53;;;5.14
72236;BMP280;60146;52.498;13.462;2023-04-06T06:17:08;101906.03;;;5.26
72236;BMP280;60146;52.498;13.462;2023-04-06T06:19:34;101910.22;;;5.33
72236;BMP280;60146;52.498;13.462;2023-04-06T06:21:59;101906.47;;;5.47
72236;BMP280;60146;52.498;13.462;2023-04-06T06:24:27;101904.88;;;5.53
72236;BMP280;60146;52.498;13.462;2023-04-06T06:26:53;101908.00;;;5.54
72236;BMP280;60146;52.498;13.462;2023-04-06T06:29:20;101901.13;;;5.66
72236;BMP280;60146;52.498;13.462;2023-04-06T06:31:45;101903.06;;;5.77
72236;BMP280;60146;52.498;13.462;2023-04-06T06:34:10;101902.16;;;5.83
72236;BMP280;60146;52.498;13.462;2023-04-06T06:36:37;101905.94;;;5.87
72236;BMP280;60146;52.498;13.462;2023-04-06T06:39:03;101905.09;;;5.93
72236;BMP280;60146;52.498;13.462;2023-04-06T06:41:29;101895.34;;;6.06
72236;BMP280;60146;52.498;13.462;2023-04-06T06:43:54;101905.44;;;6.14
72236;BMP280;60146;52.498;13.462;2023-04-06T06:46:20;101902.78;;;6.20
72236;BMP280;60146;52.498;13.462;2023-04-06T06:48:46;101906.38;;;6.37
72236;BMP280;60146;52.498;13.462;2023-04-06T06:51:11;101889.09;;;6.42
72236;BMP280;60146;52.498;13.462;2023-04-06T06:53:37;101902.75;;;6.55
72236;BMP280;60146;52.498;13.462;2023-04-06T06:56:03;101898.38;;;6.67
72236;BMP280;60146;52.498;13.462;2023-04-06T06:58:28;101911.66;;;6.77
72236;BMP280;60146;52.498;13.462;2023-04-06T07:00:57;101905.59;;;6.82
72236;BMP280;60146;52.498;13.462;2023-04-06T07:03:23;101911.63;;;6.94
72236;BMP280;60146;52.498;13.462;2023-04-06T07:05:49;101902.00;;;7.06
72236;BMP280;60146;52.498;13.462;2023-04-06T07:08:24;101905.56;;;7.23
72236;BMP280;60146;52.498;13.462;2023-04-06T07:10:50;101912.28;;;7.30
72236;BMP280;60146;52.498;13.462;2023-04-06T07:13:18;101908.56;;;7.37
72236;BMP280;60146;52.498;13.462;2023-04-06T07:15:47;101907.78;;;7.48
72236;BMP280;60146;52.498;13.462;2023-04-06T07:18:12;101909.91;;;7.62
72236;BMP280;60146;52.498;13.462;2023-04-06T07:20:38;101905.63;;;7.79
72236;BMP280;60146;52.498;13.462;2023-04-06T07:23:04;101910.13;;;7.83
72236;BMP280;60146;52.498;13.462;2023-04-06T07:25:29;101897.28;;;7.93
72236;BMP280;60146;52.498;13.462;2023-04-06T07:27:56;101899.09;;;8.04
72236;BMP280;60146;52.498;13.462;2023-04-06T07:30:22;101898.28;;;8.14
72236;BMP280;60146;52.498;13.462;2023-04-06T07:32:48;101895.88;;;8.24
72236;BMP280;60146;52.498;13.462;2023-04-06T07:35:14;101892.44;;;8.35
72236;BMP280;60146;52.498;13.462;2023-04-06T07:37:40;101902.31;;;8.33
72236;BMP280;60146;52.498;13.462;2023-04-06T07:40:06;101890.75;;;8.56
72236;BMP280;60146;52.498;13.462;2023-04-06T07:42:31;101889.34;;;8.65
72236;BMP280;60146;52.498;13.462;2023-04-06T07:44:58;101890.09;;;8.77
72236;BMP280;60146;52.498;13.462;2023-04-06T07:47:23;101879.94;;;8.80
72236;BMP280;60146;52.498;13.462;2023-04-06T07:49:49;101891.00;;;8.98
72236;BMP280;60146;52.498;13.462;2023-04-06T07:52:15;101893.84;;;9.13
72236;BMP280;60146;52.498;13.462;2023-04-06T07:54:40;101893.06;;;9.29
72236;BMP280;60146;52.498;13.462;2023-04-06T07:57:06;101891.22;;;9.45
72236;BMP280;60146;52.498;13.462;2023-04-06T07:59:32;101888.75;;;9.55
72236;BMP280;60146;52.498;13.462;2023-04-06T08:01:57;101881.16;;;9.74
72236;BMP280;60146;52.498;13.462;2023-04-06T08:04:23;101881.66;;;9.93
72236;BMP280;60146;52.498;13.462;2023-04-06T08:06:48;101882.28;;;10.25
72236;BMP280;60146;52.498;13.462;2023-04-06T08:09:13;101890.09;;;10.46
72236;BMP280;60146;52.498;13.462;2023-04-06T08:11:39;101883.75;;;10.68
72236;BMP280;60146;52.498;13.462;2023-04-06T08:14:05;101882.44;;;10.66
72236;BMP280;60146;52.498;13.462;2023-04-06T08:16:31;101882.84;;;11.15
72236;BMP280;60146;52.498;13.462;2023-04-06T08:18:56;101889.50;;;11.82
72236;BMP280;60146;52.498;13.462;2023-04-06T08:21:22;101880.97;;;12.55
72236;BMP280;60146;52.498;13.462;2023-04-06T08:24:23;101882.47;;;13.43
72236;BMP280;60146;52.498;13.462;2023-04-06T08:27:35;101883.03;;;14.35
72236;BMP280;60146;52.498;13.462;2023-04-06T08:30:19;101874.84;;;15.15
72236;BMP280;60146;52.498;13.462;2023-04-06T08:32:46;101881.53;;;15.72
72236;BMP280;60146;52.498;13.462;2023-04-06T08:35:11;101881.91;;;15.83
72236;BMP280;60146;52.498;13.462;2023-04-06T08:37:37;101872.34;;;16.36
72236;BMP280;60146;52.498;13.462;2023-04-06T08:40:03;101854.69;;;16.89
72236;BMP280;60146;52.498;13.462;2023-04-06T08:42:32;101869.38;;;17.48
72236;BMP280;60146;52.498;13.462;2023-04-06T08:44:58;101862.38;;;18.38
72236;BMP280;60146;52.498;13.462;2023-04-06T08:47:24;101866.72;;;19.01
72236;BMP280;60146;52.498;13.462;2023-04-06T08:49:50;101867.00;;;19.54
72236;BMP280;60146;52.498;13.462;2023-04-06T08:52:18;101859.16;;;19.66
72236;BMP280;60146;52.498;13.462;2023-04-06T08:54:44;101866.16;;;19.95
72236;BMP280;60146;52.498;13.462;2023-04-06T08:57:10;101855.38;;;19.67
72236;BMP280;60146;52.498;13.462;2023-04-06T08:59:36;101860.47;;;20.30
72236;BMP280;60146;52.498;13.462;2023-04-06T09:02:06;101857.19;;;21.49
72236;BMP280;60146;52.498;13.462;2023-04-06T09:04:36;101860.81;;;22.28
72236;BMP280;60146;52.498;13.462;2023-04-06T09:07:02;101864.16;;;22.72
72236;BMP280;60146;52.498;13.462;2023-04-06T09:09:27;101857.91;;;23.30
72236;BMP280;60146;52.498;13.462;2023-04-06T09:11:53;101855.81;;;23.23
72236;BMP280;60146;52.498;13.462;2023-04-06T09:14:38;101850.31;;;23.73
72236;BMP280;60146;52.498;13.462;2023-04-06T09:17:05;101853.16;;;24.56
72236;BMP280;60146;52.498;13.462;2023-04-06T09:19:31;101853.78;;;23.89
72236;BMP280;60146;52.498;13.462;2023-04-06T09:22:10;101844.19;;;24.67
72236;BMP280;60146;52.498;13.462;2023-04-06T09:24:47;101849.53;;;24.82
72236;BMP280;60146;52.498;13.462;2023-04-06T09:27:16;101849.34;;;25.68
72236;BMP280;60146;52.498;13.462;2023-04-06T09:29:43;101846.91;;;26.06
72236;BMP280;60146;52.498;13.462;2023-04-06T09:32:10;101845.69;;;24.83
72236;BMP280;60146;52.498;13.462;2023-04-06T09:34:42;101839.19;;;25.80
72236;BMP280;60146;52.498;13.462;2023-04-06T09:37:14;101839.06;;;26.45
72236;BMP280;60146;52.498;13.462;2023-04-06T09:39:40;101832.25;;;25.57
72236;BMP280;60146;52.498;13.462;2023-04-06T09:42:06;101834.72;;;26.12
72236;BMP280;60146;52.498;13.462;2023-04-06T09:44:31;101830.56;;;23.24
72236;BMP280;60146;52.498;13.462;2023-04-06T09:46:57;101821.19;;;21.43
72236;BMP280;60146;52.498;13.462;2023-04-06T09:49:23;101827.75;;;21.06
72236;BMP280;60146;52.498;13.462;2023-04-06T09:51:55;101837.34;;;21.78
72236;BMP280;60146;52.498;13.462;2023-04-06T09:54:22;101825.47;;;21.88
72236;BMP280;60146;52.498;13.462;2023-04-06T09:56:58;101817.91;;;22.60
72236;BMP280;60146;52.498;13.462;2023-04-06T10:02:05;101828.97;;;24.37
72236;BMP280;60146;52.498;13.462;2023-04-06T10:04:56;101813.44;;;23.67
72236;BMP280;60146;52.498;13.462;2023-04-06T10:07:25;101822.00;;;23.46
72236;BMP280;60146;52.498;13.462;2023-04-06T10:09:53;101813.75;;;21.80
72236;BMP280;60146;52.498;13.462;2023-04-06T10:12:20;101817.41;;;21.44
72236;BMP280;60146;52.498;13.462;2023-04-06T10:14:45;101830.09;;;21.79
72236;BMP280;60146;52.498;13.462;2023-04-06T10:17:11;101816.06;;;21.19
72236;BMP280;60146;52.498;13.462;2023-04-06T10:19:53;101816.13;;;23.97
72236;BMP280;60146;52.498;13.462;2023-04-06T10:22:29;101812.34;;;24.47
72236;BMP280;60146;52.498;13.462;2023-04-06T10:24:55;101812.97;;;24.59
72236;BMP280;60146;52.498;13.462;2023-04-06T10:27:30;101812.03;;;24.33
72236;BMP280;60146;52.498;13.462;2023-04-06T10:30:01;101807.00;;;25.02
72236;BMP280;60146;52.498;13.462;2023-04-06T10:35:09;101815.44;;;25.63
72236;BMP280;60146;52.498;13.462;2023-04-06T10:38:01;101811.84;;;24.27
72236;BMP280;60146;52.498;13.462;2023-04-06T10:40:27;101798.31;;;25.27
72236;BMP280;60146;52.498;13.462;2023-04-06T10:42:54;101801.31;;;27.03
72236;BMP280;60146;52.498;13.462;2023-04-06T10:45:24;101802.84;;;27.36
72236;BMP280;60146;52.498;13.462;2023-04-06T10:47:53;101803.69;;;25.27
72236;BMP280;60146;52.498;13.462;2023-04-06T10:50:19;101819.28;;;22.54
72236;BMP280;60146;52.498;13.462;2023-04-06T10:52:45;101813.94;;;23.57
72236;BMP280;60146;52.498;13.462;2023-04-06T10:55:14;101808.06;;;25.79
72236;BMP280;60146;52.498;13.462;2023-04-06T10:57:40;101801.19;;;26.92
72236;BMP280;60146;52.498;13.462;2023-04-06T11:00:07;101799.31;;;28.37
72236;BMP280;60146;52.498;13.462;2023-04-06T11:02:34;101809.22;;;28.13
72236;BMP280;60146;52.498;13.462;2023-04-06T11:05:00;101794.56;;;28.10
72236;BMP280;60146;52.498;13.462;2023-04-06T11:07:27;101792.59;;;28.94
72236;BMP280;60146;52.498;13.462;2023-04-06T11:10:00;101793.28;;;30.10
72236;BMP280;60146;52.498;13.462;2023-04-06T11:12:29;101799.44;;;28.71
72236;BMP280;60146;52.498;13.462;2023-04-06T11:14:57;101792.59;;;28.07
72236;BMP280;60146;52.498;13.462;2023-04-06T11:17:28;101781.75;;;28.97
72236;BMP280;60146;52.498;13.462;2023-04-06T11:19:54;101774.44;;;30.66
72236;BMP280;60146;52.498;13.462;2023-04-06T11:22:20;101782.16;;;29.77
72236;BMP280;60146;52.498;13.462;2023-04-06T11:24:46;101780.41;;;28.27
72236;BMP280;60146;52.498;13.462;2023-04-06T11:27:11;101778.97;;;28.63
72236;BMP280;60146;52.498;13.462;2023-04-06T11:29:37;101773.69;;;29.45
72236;BMP280;60146;52.498;13.462;2023-04-06T11:32:06;101771.78;;;29.35
72236;BMP280;60146;52.498;13.462;2023-04-06T11:34:53;101764.19;;;30.34
72236;BMP280;60146;52.498;13.462;2023-04-06T11:37:19;101763.25;;;30.57
72236;BMP280;60146;52.498;13.462;2023-04-06T11:39:52;101772.97;;;30.55
72236;BMP280;60146;52.498;13.462;2023-04-06T11:44:49;101767.09;;;29.80
72236;BMP280;60146;52.498;13.462;2023-04-06T11:47:19;101753.63;;;31.06
72236;BMP280;60146;52.498;13.462;2023-04-06T11:49:45;101765.38;;;30.26
72236;BMP280;60146;52.498;13.462;2023-04-06T11:52:19;101765.59;;;30.55
72236;BMP280;60146;52.498;13.462;2023-04-06T11:54:45;101752.03;;;30.59
72236;BMP280;60146;52.498;13.462;2023-04-06T11:57:11;101764.34;;;29.93
72236;BMP280;60146;52.498;13.462;2023-04-06T11:59:36;101755.31;;;31.33
72236;BMP280;60146;52.498;13.462;2023-04-06T12:02:03;101750.69;;;33.01
72236;BMP280;60146;52.498;13.462;2023-04-06T12:04:29;101740.66;;;33.77
72236;BMP280;60146;52.498;13.462;2023-04-06T12:06:55;101748.16;;;34.08
72236;BMP280;60146;52.498;13.462;2023-04-06T12:09:21;101749.47;;;31.73
72236;BMP280;60146;52.498;13.462;2023-04-06T12:11:47;101745.00;;;30.68
72236;BMP280;60146;52.498;13.462;2023-04-06T12:14:12;101733.22;;;30.91
72236;BMP280;60146;52.498;13.462;2023-04-06T12:16:38;101744.41;;;30.40
72236;BMP280;60146;52.498;13.462;2023-04-06T12:19:04;101741.72;;;30.44
72236;BMP280;60146;52.498;13.462;2023-04-06T12:21:31;101742.69;;;29.90
72236;BMP280;60146;52.498;13.462;2023-04-06T12:23:59;101746.63;;;28.97
72236;BMP280;60146;52.498;13.462;2023-04-06T12:26:25;101741.25;;;29.00
72236;BMP280;60146;52.498;13.462;2023-04-06T12:28:51;101732.22;;;28.39
72236;BMP280;60146;52.498;13.462;2023-04-06T12:31:18;101740.84;;;27.81
72236;BMP280;60146;52.498;13.462;2023-04-06T12:33:46;101730.50;;;25.81
72236;BMP280;60146;52.498;13.462;2023-04-06T12:36:12;101730.50;;;26.99
72236;BMP280;60146;52.498;13.462;2023-04-06T12:38:39;101730.66;;;28.34
72236;BMP280;60146;52.498;13.462;2023-04-06T12:41:06;101714.25;;;29.17
72236;BMP280;60146;52.498;13.462;2023-04-06T12:43:32;101717.06;;;30.18
72236;BMP280;60146;52.498;13.462;2023-04-06T12:45:57;101722.44;;;30.21
72236;BMP280;60146;52.498;13.462;2023-04-06T12:48:24;101721.78;;;30.70
72236;BMP280;60146;52.498;13.462;2023-04-06T12:51:01;101726.91;;;31.47
72236;BMP280;60146;52.498;13.462;2023-04-06T12:53:27;101716.72;;;31.54
72236;BMP280;60146;52.498;13.462;2023-04-06T12:55:54;101718.94;;;31.30
72236;BMP280;60146;52.498;13.462;2023-04-06T12:58:21;101711.63;;;30.78
72236;BMP280;60146;52.498;13.462;2023-04-06T13:00:49;101713.53;;;31.66
72236;BMP280;60146;52.498;13.462;2023-04-06T13:03:19;101709.66;;;32.48
72236;BMP280;60146;52.498;13.462;2023-04-06T13:05:46;101700.31;;;31.97
72236;BMP280;60146;52.498;13.462;2023-04-06T13:08:13;101709.47;;;31.45
72236;BMP280;60146;52.498;13.462;2023-04-06T13:10:46;101709.97;;;29.20
72236;BMP280;60146;52.498;13.462;2023-04-06T13:13:13;101710.75;;;27.79
72236;BMP280;60146;52.498;13.462;2023-04-06T13:15:39;101712.03;;;26.01
72236;BMP280;60146;52.498;13.462;2023-04-06T13:18:04;101720.44;;;25.74
72236;BMP280;60146;52.498;13.462;2023-04-06T13:20:30;101701.19;;;26.23
72236;BMP280;60146;52.498;13.462;2023-04-06T13:22:55;101692.00;;;26.95
72236;BMP280;60146;52.498;13.462;2023-04-06T13:25:21;101703.75;;;27.19
72236;BMP280;60146;52.498;13.462;2023-04-06T13:27:46;101706.22;;;27.38
72236;BMP280;60146;52.498;13.462;2023-04-06T13:30:14;101694.94;;;26.80
72236;BMP280;60146;52.498;13.462;2023-04-06T13:32:41;101690.28;;;25.62
72236;BMP280;60146;52.498;13.462;2023-04-06T13:35:09;101694.25;;;26.22
72236;BMP280;60146;52.498;13.462;2023-04-06T13:37:36;101686.78;;;27.61
72236;BMP280;60146;52.498;13.462;2023-04-06T13:40:02;101692.81;;;28.14
72236;BMP280;60146;52.498;13.462;2023-04-06T13:42:29;101692.00;;;28.07
72236;BMP280;60146;52.498;13.462;2023-04-06T13:44:55;101701.03;;;27.65
72236;BMP280;60146;52.498;13.462;2023-04-06T13:47:20;101687.81;;;26.30
72236;BMP280;60146;52.498;13.462;2023-04-06T13:49:47;101686.13;;;24.40
72236;BMP280;60146;52.498;13.462;2023-04-06T13:52:12;101687.34;;;23.45
72236;BMP280;60146;52.498;13.462;2023-04-06T13:54:38;101683.53;;;23.16
72236;BMP280;60146;52.498;13.462;2023-04-06T13:57:04;101683.69;;;22.93
72236;BMP280;60146;52.498;13.462;2023-04-06T13:59:34;101678.88;;;22.86
72236;BMP280;60146;52.498;13.462;2023-04-06T14:02:01;101670.06;;;23.28
72236;BMP280;60146;52.498;13.462;2023-04-06T14:04:27;101680.75;;;24.77
72236;BMP280;60146;52.498;13.462;2023-04-06T14:06:53;101685.00;;;24.78